地図

経路データ

SID SEASON NUMBER BASIN SUBBASIN NAME ISO_TIME NATURE LAT LON WMO_WIND WMO_PRES WMO_AGENCY TRACK_TYPE DIST2LAND LANDFALL IFLAG USA_AGENCY USA_ATCF_ID USA_LAT USA_LON USA_RECORD USA_STATUS USA_WIND USA_PRES USA_SSHS USA_R34_NE USA_R34_SE USA_R34_SW USA_R34_NW USA_R50_NE USA_R50_SE USA_R50_SW USA_R50_NW USA_R64_NE USA_R64_SE USA_R64_SW USA_R64_NW USA_POCI USA_ROCI USA_RMW USA_EYE TOKYO_LAT TOKYO_LON TOKYO_GRADE TOKYO_WIND TOKYO_PRES TOKYO_R50_DIR TOKYO_R50_LONG TOKYO_R50_SHORT TOKYO_R30_DIR TOKYO_R30_LONG TOKYO_R30_SHORT TOKYO_LAND CMA_LAT CMA_LON CMA_CAT CMA_WIND CMA_PRES HKO_LAT HKO_LON HKO_CAT HKO_WIND HKO_PRES NEWDELHI_LAT NEWDELHI_LON NEWDELHI_GRADE NEWDELHI_WIND NEWDELHI_PRES NEWDELHI_CI NEWDELHI_DP NEWDELHI_POCI REUNION_LAT REUNION_LON REUNION_TYPE REUNION_WIND REUNION_PRES REUNION_TNUM REUNION_CI REUNION_RMW REUNION_R34_NE REUNION_R34_SE REUNION_R34_SW REUNION_R34_NW REUNION_R50_NE REUNION_R50_SE REUNION_R50_SW REUNION_R50_NW REUNION_R64_NE REUNION_R64_SE REUNION_R64_SW REUNION_R64_NW BOM_LAT BOM_LON BOM_TYPE BOM_WIND BOM_PRES BOM_TNUM BOM_CI BOM_RMW BOM_R34_NE BOM_R34_SE BOM_R34_SW BOM_R34_NW BOM_R50_NE BOM_R50_SE BOM_R50_SW BOM_R50_NW BOM_R64_NE BOM_R64_SE BOM_R64_SW BOM_R64_NW BOM_ROCI BOM_POCI BOM_EYE BOM_POS_METHOD BOM_PRES_METHOD NADI_LAT NADI_LON NADI_CAT NADI_WIND NADI_PRES WELLINGTON_LAT WELLINGTON_LON WELLINGTON_WIND WELLINGTON_PRES DS824_LAT DS824_LON DS824_STAGE DS824_WIND DS824_PRES TD9636_LAT TD9636_LON TD9636_STAGE TD9636_WIND TD9636_PRES TD9635_LAT TD9635_LON TD9635_WIND TD9635_PRES TD9635_ROCI NEUMANN_LAT NEUMANN_LON NEUMANN_CLASS NEUMANN_WIND NEUMANN_PRES MLC_LAT MLC_LON MLC_CLASS MLC_WIND MLC_PRES USA_GUST BOM_GUST BOM_GUST_PER REUNION_GUST REUNION_GUST_PER USA_SEAHGT USA_SEARAD_NE USA_SEARAD_SE USA_SEARAD_SW USA_SEARAD_NW STORM_SPEED STORM_DIR
1899311N12282 1899 46 NA CS NOT_NAMED 1899-11-07 00:00:00 TS 11.7000 -78.3000 35 hurdat_atl main 261 261 O_____________ hurdat_atl AL101899 11.7000 -78.3000 TS 35 0 7 37
1899311N12282 1899 46 NA CS NOT_NAMED 1899-11-07 03:00:00 TS 11.9600 -78.1026 main 300 300 P_____________ AL101899 11.9600 -78.1026 TS 35 0 6 38
1899311N12282 1899 46 NA CS NOT_NAMED 1899-11-07 06:00:00 TS 12.2000 -77.9000 35 hurdat_atl main 317 313 O_____________ hurdat_atl AL101899 12.2000 -77.9000 TS 35 0 6 41
1899311N12282 1899 46 NA CS NOT_NAMED 1899-11-07 09:00:00 TS 12.4200 -77.6924 main 313 312 P_____________ AL101899 12.4200 -77.6924 TS 37 0 6 38
1899311N12282 1899 46 NA CS NOT_NAMED 1899-11-07 12:00:00 TS 12.7000 -77.5000 40 hurdat_atl main 320 320 O_____________ hurdat_atl AL101899 12.7000 -77.5000 TS 40 0 8 26
1899311N12282 1899 46 NA CS NOT_NAMED 1899-11-07 15:00:00 TS 13.1125 -77.3499 main 337 337 P_____________ AL101899 13.1125 -77.3499 TS 40 0 10 18
1899311N12282 1899 46 NA CS NOT_NAMED 1899-11-07 18:00:00 TS 13.6000 -77.2000 40 hurdat_atl main 375 375 O_____________ hurdat_atl AL101899 13.6000 -77.2000 TS 40 0 10 20
1899311N12282 1899 46 NA CS NOT_NAMED 1899-11-07 21:00:00 TS 14.0700 -77.0000 main 403 349 P_____________ AL101899 14.0700 -77.0000 TS 42 0 11 21
1899311N12282 1899 46 NA CS NOT_NAMED 1899-11-08 00:00:00 TS 14.6000 -76.8000 45 hurdat_atl main 349 287 O_____________ hurdat_atl AL101899 14.6000 -76.8000 TS 45 0 12 17
1899311N12282 1899 46 NA CS NOT_NAMED 1899-11-08 03:00:00 TS 15.2425 -76.6201 main 287 214 P_____________ AL101899 15.2425 -76.6201 TS 47 0 13 13
1899311N12282 1899 46 NA CS NOT_NAMED 1899-11-08 06:00:00 TS 15.9000 -76.5000 50 hurdat_atl main 214 163 O_____________ hurdat_atl AL101899 15.9000 -76.5000 TS 50 0 12 6
1899311N12282 1899 46 NA CS NOT_NAMED 1899-11-08 09:00:00 TS 16.4725 -76.4773 main 153 100 P_____________ AL101899 16.4725 -76.4773 TS 52 0 11 0
1899311N12282 1899 46 NA CS NOT_NAMED 1899-11-08 12:00:00 TS 17.0000 -76.5000 55 hurdat_atl main 100 44 O_____________ hurdat_atl AL101899 17.0000 -76.5000 TS 55 0 11 0
1899311N12282 1899 46 NA CS NOT_NAMED 1899-11-08 15:00:00 TS 17.5150 -76.4926 main 44 0 P_____________ AL101899 17.5150 -76.4926 TS 55 0 10 1
1899311N12282 1899 46 NA CS NOT_NAMED 1899-11-08 18:00:00 TS 18.0000 -76.5000 55 hurdat_atl main 0 0 O_____________ hurdat_atl AL101899 18.0000 -76.5000 TS 55 0 10 358
1899311N12282 1899 46 NA CS NOT_NAMED 1899-11-08 21:00:00 TS 18.4575 -76.5425 main 33 30 P_____________ AL101899 18.4575 -76.5425 TS 50 0 9 354
1899311N12282 1899 46 NA CS NOT_NAMED 1899-11-09 00:00:00 TS 18.9000 -76.6000 45 hurdat_atl main 64 64 O_____________ hurdat_atl AL101899 18.9000 -76.6000 TS 45 0 9 353
1899311N12282 1899 46 NA CS NOT_NAMED 1899-11-09 03:00:00 TS 19.3500 -76.6575 main 64 22 P_____________ AL101899 19.3500 -76.6575 TS 45 0 9 354
1899311N12282 1899 46 NA CS NOT_NAMED 1899-11-09 06:00:00 TS 19.8000 -76.7000 45 hurdat_atl main 22 0 O_____________ hurdat_atl AL101899 19.8000 -76.7000 TS 45 0 8 354
1899311N12282 1899 46 NA NA NOT_NAMED 1899-11-09 09:00:00 TS 20.1824 -76.7519 main 0 0 P_____________ AL101899 20.1824 -76.7519 TS 40 0 9 0
1899311N12282 1899 46 NA NA NOT_NAMED 1899-11-09 12:00:00 TS 20.7000 -76.7000 35 hurdat_atl main 0 0 O_____________ hurdat_atl AL101899 20.7000 -76.7000 TS 35 0 14 10
1899311N12282 1899 46 NA NA NOT_NAMED 1899-11-09 15:00:00 TS 21.5248 -76.4968 main 30 30 P_____________ AL101899 21.5248 -76.4968 TS 35 0 19 17
1899311N12282 1899 46 NA NA NOT_NAMED 1899-11-09 18:00:00 TS 22.5000 -76.1000 35 hurdat_atl main 136 136 O_____________ hurdat_atl AL101899 22.5000 -76.1000 TS 35 0 22 25
1899311N12282 1899 46 NA NA NOT_NAMED 1899-11-09 21:00:00 TS 23.4651 -75.5177 main 249 249 P_____________ AL101899 23.4651 -75.5177 TS 32 -1 23 32
1899311N12282 1899 46 NA NA NOT_NAMED 1899-11-10 00:00:00 TS 24.4000 -74.8000 30 hurdat_atl main 293 293 O_____________ hurdat_atl AL101899 24.4000 -74.8000 TD 30 -1 22 36
1899311N12282 1899 46 NA NA NOT_NAMED 1899-11-10 03:00:00 TS 25.2292 -74.1008 main 371 371 P_____________ AL101899 25.2292 -74.1008 TD 30 -1 21 40
1899311N12282 1899 46 NA NA NOT_NAMED 1899-11-10 06:00:00 TS 26.0000 -73.3000 30 hurdat_atl main 472 472 O_____________ hurdat_atl AL101899 26.0000 -73.3000 TD 30 -1 22 45
1899311N12282 1899 46 NA NA NOT_NAMED 1899-11-10 09:00:00 TS 26.8028 -72.3232 main 598 598 P_____________ AL101899 26.8028 -72.3232 TD 30 -1 23 50
1899311N12282 1899 46 NA NA NOT_NAMED 1899-11-10 12:00:00 TS 27.5000 -71.3000 30 hurdat_atl main 718 718 O_____________ hurdat_atl AL101899 27.5000 -71.3000 TD 30 -1 21 55
1899311N12282 1899 46 NA NA NOT_NAMED 1899-11-10 15:00:00 TS 28.0080 -70.3676 main 803 803 P_____________ AL101899 28.0080 -70.3676 TD 30 -1 18 60
1899311N12282 1899 46 NA NA NOT_NAMED 1899-11-10 18:00:00 TS 28.4000 -69.5000 30 hurdat_atl main 878 O_____________ hurdat_atl AL101899 28.4000 -69.5000 TD 30 -1 17 63

IBTrACS Databaseについて

本データベースは、米国NOAAが公開する1842年以降の世界の熱帯低気圧のベストトラックデータアーカイブInternational Best Track Archive for Climate Stewardship (IBTrACS)を、ウェブで閲覧しやすい形式に変換したものです。

最終更新日:2021-10-08